sensor_id;sensor_type;location;lat;lon;timestamp;P1;durP1;ratioP1;P2;durP2;ratioP2
41661;SDS011;27351;45.992;12.666;2023-06-14T00:00:36;5.22;;;3.13;;
41661;SDS011;27351;45.992;12.666;2023-06-14T00:03:01;6.13;;;2.90;;
41661;SDS011;27351;45.992;12.666;2023-06-14T00:05:29;5.18;;;2.72;;
41661;SDS011;27351;45.992;12.666;2023-06-14T00:07:55;5.28;;;3.15;;
41661;SDS011;27351;45.992;12.666;2023-06-14T00:10:20;4.85;;;2.83;;
41661;SDS011;27351;45.992;12.666;2023-06-14T00:12:46;5.70;;;2.90;;
41661;SDS011;27351;45.992;12.666;2023-06-14T00:15:11;5.37;;;3.30;;
41661;SDS011;27351;45.992;12.666;2023-06-14T00:17:37;6.20;;;3.22;;
41661;SDS011;27351;45.992;12.666;2023-06-14T00:20:04;6.70;;;3.60;;
41661;SDS011;27351;45.992;12.666;2023-06-14T00:22:33;6.65;;;3.50;;
41661;SDS011;27351;45.992;12.666;2023-06-14T00:24:58;7.18;;;4.07;;
41661;SDS011;27351;45.992;12.666;2023-06-14T00:27:24;6.40;;;3.75;;
41661;SDS011;27351;45.992;12.666;2023-06-14T00:29:50;6.57;;;3.90;;
41661;SDS011;27351;45.992;12.666;2023-06-14T00:32:15;7.73;;;3.97;;
41661;SDS011;27351;45.992;12.666;2023-06-14T00:34:41;6.73;;;3.47;;
41661;SDS011;27351;45.992;12.666;2023-06-14T00:37:07;6.40;;;3.37;;
41661;SDS011;27351;45.992;12.666;2023-06-14T00:39:34;6.33;;;3.40;;
41661;SDS011;27351;45.992;12.666;2023-06-14T00:42:00;6.22;;;3.38;;
41661;SDS011;27351;45.992;12.666;2023-06-14T00:44:25;6.37;;;3.80;;
41661;SDS011;27351;45.992;12.666;2023-06-14T00:46:51;7.13;;;3.90;;
41661;SDS011;27351;45.992;12.666;2023-06-14T00:49:16;5.85;;;3.47;;
41661;SDS011;27351;45.992;12.666;2023-06-14T00:51:43;5.35;;;3.10;;
41661;SDS011;27351;45.992;12.666;2023-06-14T00:54:09;6.90;;;4.00;;
41661;SDS011;27351;45.992;12.666;2023-06-14T00:56:36;8.85;;;4.30;;
41661;SDS011;27351;45.992;12.666;2023-06-14T00:59:02;6.70;;;3.65;;
41661;SDS011;27351;45.992;12.666;2023-06-14T01:01:28;6.73;;;3.47;;
41661;SDS011;27351;45.992;12.666;2023-06-14T01:03:53;6.80;;;3.50;;
41661;SDS011;27351;45.992;12.666;2023-06-14T01:06:23;6.93;;;3.70;;
41661;SDS011;27351;45.992;12.666;2023-06-14T01:12:10;6.53;;;3.50;;
41661;SDS011;27351;45.992;12.666;2023-06-14T01:14:25;6.25;;;3.60;;
41661;SDS011;27351;45.992;12.666;2023-06-14T01:16:52;6.83;;;3.40;;
41661;SDS011;27351;45.992;12.666;2023-06-14T01:19:20;6.72;;;4.05;;
41661;SDS011;27351;45.992;12.666;2023-06-14T01:21:47;5.60;;;3.22;;
41661;SDS011;27351;45.992;12.666;2023-06-14T01:24:16;6.20;;;3.65;;
41661;SDS011;27351;45.992;12.666;2023-06-14T01:26:45;7.00;;;3.58;;
41661;SDS011;27351;45.992;12.666;2023-06-14T01:29:11;6.43;;;3.50;;
41661;SDS011;27351;45.992;12.666;2023-06-14T01:31:37;6.60;;;3.75;;
41661;SDS011;27351;45.992;12.666;2023-06-14T01:34:06;7.03;;;3.67;;
41661;SDS011;27351;45.992;12.666;2023-06-14T01:36:32;7.87;;;3.73;;
41661;SDS011;27351;45.992;12.666;2023-06-14T01:38:58;7.23;;;4.10;;
41661;SDS011;27351;45.992;12.666;2023-06-14T01:41:29;11.32;;;4.20;;
41661;SDS011;27351;45.992;12.666;2023-06-14T01:43:55;9.90;;;4.18;;
41661;SDS011;27351;45.992;12.666;2023-06-14T01:46:22;6.93;;;4.00;;
41661;SDS011;27351;45.992;12.666;2023-06-14T01:48:47;6.90;;;4.20;;
41661;SDS011;27351;45.992;12.666;2023-06-14T01:51:13;6.05;;;3.60;;
41661;SDS011;27351;45.992;12.666;2023-06-14T01:53:41;6.60;;;3.50;;
41661;SDS011;27351;45.992;12.666;2023-06-14T01:56:09;7.65;;;4.10;;
41661;SDS011;27351;45.992;12.666;2023-06-14T01:58:35;6.90;;;3.95;;
41661;SDS011;27351;45.992;12.666;2023-06-14T02:01:01;8.38;;;4.30;;
41661;SDS011;27351;45.992;12.666;2023-06-14T02:03:27;7.97;;;4.03;;
41661;SDS011;27351;45.992;12.666;2023-06-14T02:05:53;7.20;;;4.33;;
41661;SDS011;27351;45.992;12.666;2023-06-14T02:08:19;7.03;;;4.43;;
41661;SDS011;27351;45.992;12.666;2023-06-14T02:10:45;7.35;;;4.55;;
41661;SDS011;27351;45.992;12.666;2023-06-14T02:13:10;7.53;;;4.60;;
41661;SDS011;27351;45.992;12.666;2023-06-14T02:15:38;7.10;;;4.60;;
41661;SDS011;27351;45.992;12.666;2023-06-14T02:18:05;6.32;;;4.13;;
41661;SDS011;27351;45.992;12.666;2023-06-14T02:20:32;7.72;;;4.55;;
41661;SDS011;27351;45.992;12.666;2023-06-14T02:22:57;8.23;;;4.63;;
41661;SDS011;27351;45.992;12.666;2023-06-14T02:25:23;7.30;;;3.83;;
41661;SDS011;27351;45.992;12.666;2023-06-14T02:27:49;7.57;;;4.30;;
41661;SDS011;27351;45.992;12.666;2023-06-14T02:30:15;7.40;;;4.15;;
41661;SDS011;27351;45.992;12.666;2023-06-14T02:32:41;7.80;;;4.18;;
41661;SDS011;27351;45.992;12.666;2023-06-14T02:35:08;9.50;;;4.63;;
41661;SDS011;27351;45.992;12.666;2023-06-14T02:37:34;9.48;;;4.82;;
41661;SDS011;27351;45.992;12.666;2023-06-14T02:40:00;9.35;;;4.90;;
41661;SDS011;27351;45.992;12.666;2023-06-14T02:42:25;8.85;;;5.13;;
41661;SDS011;27351;45.992;12.666;2023-06-14T02:44:51;7.33;;;4.50;;
41661;SDS011;27351;45.992;12.666;2023-06-14T02:47:17;7.30;;;4.30;;
41661;SDS011;27351;45.992;12.666;2023-06-14T02:49:43;9.60;;;4.72;;
41661;SDS011;27351;45.992;12.666;2023-06-14T02:52:13;8.43;;;4.82;;
41661;SDS011;27351;45.992;12.666;2023-06-14T02:54:39;8.35;;;4.63;;
41661;SDS011;27351;45.992;12.666;2023-06-14T02:57:06;9.23;;;4.93;;
41661;SDS011;27351;45.992;12.666;2023-06-14T02:59:34;7.07;;;4.68;;
41661;SDS011;27351;45.992;12.666;2023-06-14T03:02:02;7.63;;;4.22;;
41661;SDS011;27351;45.992;12.666;2023-06-14T03:04:29;7.60;;;4.68;;
41661;SDS011;27351;45.992;12.666;2023-06-14T03:06:58;8.85;;;4.45;;
41661;SDS011;27351;45.992;12.666;2023-06-14T03:09:24;8.33;;;4.93;;
41661;SDS011;27351;45.992;12.666;2023-06-14T03:11:51;8.32;;;4.70;;
41661;SDS011;27351;45.992;12.666;2023-06-14T03:14:16;10.15;;;5.03;;
41661;SDS011;27351;45.992;12.666;2023-06-14T03:16:44;9.23;;;5.20;;
41661;SDS011;27351;45.992;12.666;2023-06-14T03:19:12;7.47;;;4.70;;
41661;SDS011;27351;45.992;12.666;2023-06-14T03:21:38;10.00;;;4.83;;
41661;SDS011;27351;45.992;12.666;2023-06-14T03:24:09;8.43;;;5.03;;
41661;SDS011;27351;45.992;12.666;2023-06-14T03:26:34;7.75;;;4.82;;
41661;SDS011;27351;45.992;12.666;2023-06-14T03:29:02;7.63;;;4.80;;
41661;SDS011;27351;45.992;12.666;2023-06-14T03:31:28;8.02;;;4.97;;
41661;SDS011;27351;45.992;12.666;2023-06-14T03:33:59;9.40;;;4.70;;
41661;SDS011;27351;45.992;12.666;2023-06-14T03:36:26;8.57;;;4.68;;
41661;SDS011;27351;45.992;12.666;2023-06-14T03:38:54;8.98;;;5.28;;
41661;SDS011;27351;45.992;12.666;2023-06-14T03:41:20;10.10;;;5.43;;
41661;SDS011;27351;45.992;12.666;2023-06-14T03:43:48;10.23;;;5.60;;
41661;SDS011;27351;45.992;12.666;2023-06-14T03:46:14;9.48;;;5.72;;
41661;SDS011;27351;45.992;12.666;2023-06-14T03:48:40;8.50;;;5.10;;
41661;SDS011;27351;45.992;12.666;2023-06-14T03:51:06;8.43;;;4.95;;
41661;SDS011;27351;45.992;12.666;2023-06-14T03:53:32;8.82;;;5.10;;
41661;SDS011;27351;45.992;12.666;2023-06-14T03:55:58;8.98;;;5.18;;
41661;SDS011;27351;45.992;12.666;2023-06-14T03:58:33;8.53;;;5.07;;
41661;SDS011;27351;45.992;12.666;2023-06-14T04:00:59;8.50;;;5.05;;
41661;SDS011;27351;45.992;12.666;2023-06-14T04:03:25;8.98;;;4.97;;
41661;SDS011;27351;45.992;12.666;2023-06-14T04:05:55;8.15;;;4.70;;
41661;SDS011;27351;45.992;12.666;2023-06-14T04:08:22;11.52;;;5.00;;
41661;SDS011;27351;45.992;12.666;2023-06-14T04:10:48;7.78;;;4.68;;
41661;SDS011;27351;45.992;12.666;2023-06-14T04:13:13;8.45;;;4.70;;
41661;SDS011;27351;45.992;12.666;2023-06-14T04:15:39;9.55;;;5.55;;
41661;SDS011;27351;45.992;12.666;2023-06-14T04:18:12;8.65;;;4.55;;
41661;SDS011;27351;45.992;12.666;2023-06-14T04:20:44;9.23;;;4.55;;
41661;SDS011;27351;45.992;12.666;2023-06-14T04:23:13;9.60;;;4.95;;
41661;SDS011;27351;45.992;12.666;2023-06-14T04:25:40;10.07;;;4.88;;
41661;SDS011;27351;45.992;12.666;2023-06-14T04:28:05;10.52;;;4.78;;
41661;SDS011;27351;45.992;12.666;2023-06-14T04:30:34;8.38;;;4.40;;
41661;SDS011;27351;45.992;12.666;2023-06-14T04:33:03;8.40;;;4.60;;
41661;SDS011;27351;45.992;12.666;2023-06-14T04:35:32;7.63;;;4.88;;
41661;SDS011;27351;45.992;12.666;2023-06-14T04:37:58;8.57;;;4.90;;
41661;SDS011;27351;45.992;12.666;2023-06-14T04:40:25;7.40;;;4.53;;
41661;SDS011;27351;45.992;12.666;2023-06-14T04:42:50;8.10;;;4.70;;
41661;SDS011;27351;45.992;12.666;2023-06-14T04:45:17;9.00;;;4.75;;
41661;SDS011;27351;45.992;12.666;2023-06-14T04:47:44;7.88;;;4.45;;
41661;SDS011;27351;45.992;12.666;2023-06-14T04:50:09;9.45;;;4.88;;
41661;SDS011;27351;45.992;12.666;2023-06-14T04:52:39;7.88;;;4.75;;
41661;SDS011;27351;45.992;12.666;2023-06-14T04:55:05;9.63;;;5.18;;
41661;SDS011;27351;45.992;12.666;2023-06-14T04:57:32;7.87;;;4.70;;
41661;SDS011;27351;45.992;12.666;2023-06-14T04:59:58;9.85;;;4.95;;
41661;SDS011;27351;45.992;12.666;2023-06-14T05:02:28;8.80;;;5.13;;
41661;SDS011;27351;45.992;12.666;2023-06-14T05:04:56;7.50;;;4.32;;
41661;SDS011;27351;45.992;12.666;2023-06-14T05:07:22;8.57;;;5.07;;
41661;SDS011;27351;45.992;12.666;2023-06-14T05:09:51;7.55;;;4.82;;
41661;SDS011;27351;45.992;12.666;2023-06-14T05:12:17;7.70;;;4.60;;
41661;SDS011;27351;45.992;12.666;2023-06-14T05:14:45;8.60;;;4.72;;
41661;SDS011;27351;45.992;12.666;2023-06-14T05:17:11;8.80;;;4.53;;
41661;SDS011;27351;45.992;12.666;2023-06-14T05:19:37;7.73;;;4.93;;
41661;SDS011;27351;45.992;12.666;2023-06-14T05:22:02;8.88;;;4.38;;
41661;SDS011;27351;45.992;12.666;2023-06-14T05:24:28;8.20;;;4.53;;
41661;SDS011;27351;45.992;12.666;2023-06-14T05:26:55;8.10;;;4.78;;
41661;SDS011;27351;45.992;12.666;2023-06-14T05:29:21;8.27;;;4.78;;
41661;SDS011;27351;45.992;12.666;2023-06-14T05:31:46;10.73;;;5.28;;
41661;SDS011;27351;45.992;12.666;2023-06-14T05:34:12;9.70;;;4.97;;
41661;SDS011;27351;45.992;12.666;2023-06-14T05:36:38;9.10;;;4.37;;
41661;SDS011;27351;45.992;12.666;2023-06-14T05:39:04;8.67;;;4.30;;
41661;SDS011;27351;45.992;12.666;2023-06-14T05:41:31;6.32;;;3.78;;
41661;SDS011;27351;45.992;12.666;2023-06-14T05:43:57;7.17;;;3.87;;
41661;SDS011;27351;45.992;12.666;2023-06-14T05:46:23;6.40;;;3.67;;
41661;SDS011;27351;45.992;12.666;2023-06-14T05:48:51;8.07;;;3.70;;
41661;SDS011;27351;45.992;12.666;2023-06-14T05:51:17;6.25;;;3.67;;
41661;SDS011;27351;45.992;12.666;2023-06-14T05:53:45;7.43;;;3.85;;
41661;SDS011;27351;45.992;12.666;2023-06-14T05:56:11;6.60;;;3.92;;
41661;SDS011;27351;45.992;12.666;2023-06-14T05:58:37;8.43;;;4.13;;
41661;SDS011;27351;45.992;12.666;2023-06-14T06:01:03;7.22;;;3.70;;
41661;SDS011;27351;45.992;12.666;2023-06-14T06:03:28;6.53;;;4.00;;
41661;SDS011;27351;45.992;12.666;2023-06-14T06:05:58;6.82;;;4.00;;
41661;SDS011;27351;45.992;12.666;2023-06-14T06:08:23;9.95;;;4.00;;
41661;SDS011;27351;45.992;12.666;2023-06-14T06:10:49;7.03;;;3.93;;
41661;SDS011;27351;45.992;12.666;2023-06-14T06:13:14;9.10;;;4.13;;
41661;SDS011;27351;45.992;12.666;2023-06-14T06:15:40;6.80;;;3.90;;
41661;SDS011;27351;45.992;12.666;2023-06-14T06:18:06;8.95;;;3.58;;
41661;SDS011;27351;45.992;12.666;2023-06-14T06:20:32;6.80;;;3.88;;
41661;SDS011;27351;45.992;12.666;2023-06-14T06:22:57;6.70;;;3.67;;
41661;SDS011;27351;45.992;12.666;2023-06-14T06:25:23;7.93;;;3.50;;
41661;SDS011;27351;45.992;12.666;2023-06-14T06:27:54;6.68;;;3.33;;
41661;SDS011;27351;45.992;12.666;2023-06-14T06:30:22;6.32;;;3.67;;
41661;SDS011;27351;45.992;12.666;2023-06-14T06:32:47;6.73;;;3.57;;
41661;SDS011;27351;45.992;12.666;2023-06-14T06:35:13;5.40;;;3.08;;
41661;SDS011;27351;45.992;12.666;2023-06-14T06:37:39;6.22;;;3.25;;
41661;SDS011;27351;45.992;12.666;2023-06-14T06:40:06;6.43;;;2.97;;
41661;SDS011;27351;45.992;12.666;2023-06-14T06:42:33;5.22;;;2.88;;
41661;SDS011;27351;45.992;12.666;2023-06-14T06:45:02;5.88;;;3.00;;
41661;SDS011;27351;45.992;12.666;2023-06-14T06:47:27;5.40;;;2.85;;
41661;SDS011;27351;45.992;12.666;2023-06-14T06:49:53;5.07;;;2.92;;
41661;SDS011;27351;45.992;12.666;2023-06-14T06:52:19;6.13;;;3.15;;
41661;SDS011;27351;45.992;12.666;2023-06-14T06:54:44;5.63;;;2.80;;
41661;SDS011;27351;45.992;12.666;2023-06-14T06:57:10;7.03;;;3.20;;
41661;SDS011;27351;45.992;12.666;2023-06-14T06:59:36;7.72;;;3.28;;
41661;SDS011;27351;45.992;12.666;2023-06-14T07:05:15;6.40;;;3.17;;
41661;SDS011;27351;45.992;12.666;2023-06-14T07:07:41;5.95;;;3.50;;
41661;SDS011;27351;45.992;12.666;2023-06-14T07:10:07;7.07;;;3.40;;
41661;SDS011;27351;45.992;12.666;2023-06-14T07:12:32;6.53;;;2.83;;
41661;SDS011;27351;45.992;12.666;2023-06-14T07:14:59;5.22;;;2.78;;
41661;SDS011;27351;45.992;12.666;2023-06-14T07:17:25;8.13;;;2.60;;
41661;SDS011;27351;45.992;12.666;2023-06-14T07:19:51;4.57;;;2.43;;
41661;SDS011;27351;45.992;12.666;2023-06-14T07:22:17;6.72;;;2.28;;
41661;SDS011;27351;45.992;12.666;2023-06-14T07:24:43;7.15;;;2.50;;
41661;SDS011;27351;45.992;12.666;2023-06-14T07:27:08;3.78;;;2.10;;
41661;SDS011;27351;45.992;12.666;2023-06-14T07:29:35;3.60;;;1.87;;
41661;SDS011;27351;45.992;12.666;2023-06-14T07:32:01;8.53;;;2.07;;
41661;SDS011;27351;45.992;12.666;2023-06-14T07:34:26;4.17;;;1.77;;
41661;SDS011;27351;45.992;12.666;2023-06-14T07:36:52;6.70;;;1.93;;
41661;SDS011;27351;45.992;12.666;2023-06-14T07:39:19;4.03;;;2.00;;
41661;SDS011;27351;45.992;12.666;2023-06-14T07:41:45;4.63;;;2.13;;
41661;SDS011;27351;45.992;12.666;2023-06-14T07:44:10;4.57;;;2.13;;
41661;SDS011;27351;45.992;12.666;2023-06-14T07:46:37;4.97;;;2.15;;
41661;SDS011;27351;45.992;12.666;2023-06-14T07:49:03;3.72;;;1.95;;
41661;SDS011;27351;45.992;12.666;2023-06-14T07:51:29;5.30;;;2.37;;
41661;SDS011;27351;45.992;12.666;2023-06-14T07:53:54;5.90;;;2.20;;
41661;SDS011;27351;45.992;12.666;2023-06-14T07:56:20;4.28;;;2.30;;
41661;SDS011;27351;45.992;12.666;2023-06-14T07:58:46;5.82;;;2.20;;
41661;SDS011;27351;45.992;12.666;2023-06-14T08:01:12;6.10;;;2.28;;
41661;SDS011;27351;45.992;12.666;2023-06-14T08:03:37;4.73;;;2.13;;
41661;SDS011;27351;45.992;12.666;2023-06-14T08:06:03;3.77;;;2.17;;
41661;SDS011;27351;45.992;12.666;2023-06-14T08:08:29;3.60;;;2.00;;
41661;SDS011;27351;45.992;12.666;2023-06-14T08:10:56;5.35;;;2.03;;
41661;SDS011;27351;45.992;12.666;2023-06-14T08:13:21;5.22;;;2.13;;
41661;SDS011;27351;45.992;12.666;2023-06-14T08:15:47;4.63;;;2.30;;
41661;SDS011;27351;45.992;12.666;2023-06-14T08:18:12;5.57;;;2.43;;
41661;SDS011;27351;45.992;12.666;2023-06-14T08:20:38;8.20;;;2.15;;
41661;SDS011;27351;45.992;12.666;2023-06-14T08:23:05;4.00;;;2.00;;
41661;SDS011;27351;45.992;12.666;2023-06-14T08:25:31;7.47;;;2.22;;
41661;SDS011;27351;45.992;12.666;2023-06-14T08:27:56;4.30;;;2.20;;
41661;SDS011;27351;45.992;12.666;2023-06-14T08:30:22;5.18;;;2.17;;
41661;SDS011;27351;45.992;12.666;2023-06-14T08:32:47;5.30;;;2.27;;
41661;SDS011;27351;45.992;12.666;2023-06-14T08:35:14;3.97;;;2.10;;
41661;SDS011;27351;45.992;12.666;2023-06-14T08:37:41;4.50;;;2.30;;
41661;SDS011;27351;45.992;12.666;2023-06-14T08:40:23;9.20;;;2.40;;
41661;SDS011;27351;45.992;12.666;2023-06-14T08:42:52;5.50;;;2.25;;
41661;SDS011;27351;45.992;12.666;2023-06-14T08:45:22;6.25;;;2.20;;
41661;SDS011;27351;45.992;12.666;2023-06-14T08:47:48;5.38;;;2.22;;
41661;SDS011;27351;45.992;12.666;2023-06-14T08:50:26;9.18;;;2.90;;
41661;SDS011;27351;45.992;12.666;2023-06-14T08:52:55;5.03;;;2.00;;
41661;SDS011;27351;45.992;12.666;2023-06-14T08:55:23;3.67;;;1.80;;
41661;SDS011;27351;45.992;12.666;2023-06-14T08:57:55;4.25;;;1.90;;
41661;SDS011;27351;45.992;12.666;2023-06-14T09:00:24;5.07;;;2.30;;
41661;SDS011;27351;45.992;12.666;2023-06-14T09:02:51;5.57;;;2.17;;
41661;SDS011;27351;45.992;12.666;2023-06-14T09:05:24;4.27;;;1.93;;
41661;SDS011;27351;45.992;12.666;2023-06-14T09:07:50;4.53;;;1.83;;
41661;SDS011;27351;45.992;12.666;2023-06-14T09:10:16;4.65;;;2.10;;
41661;SDS011;27351;45.992;12.666;2023-06-14T09:12:42;6.55;;;2.17;;
41661;SDS011;27351;45.992;12.666;2023-06-14T09:15:09;6.10;;;2.30;;
41661;SDS011;27351;45.992;12.666;2023-06-14T09:17:35;4.82;;;2.00;;
41661;SDS011;27351;45.992;12.666;2023-06-14T09:20:04;4.55;;;2.10;;
41661;SDS011;27351;45.992;12.666;2023-06-14T09:22:37;4.18;;;2.10;;
41661;SDS011;27351;45.992;12.666;2023-06-14T09:25:03;5.18;;;2.08;;
41661;SDS011;27351;45.992;12.666;2023-06-14T09:27:30;4.57;;;2.10;;
41661;SDS011;27351;45.992;12.666;2023-06-14T09:29:55;3.85;;;2.00;;
41661;SDS011;27351;45.992;12.666;2023-06-14T09:32:21;4.03;;;2.17;;
41661;SDS011;27351;45.992;12.666;2023-06-14T09:34:47;7.20;;;2.40;;
41661;SDS011;27351;45.992;12.666;2023-06-14T09:37:25;4.53;;;2.05;;
41661;SDS011;27351;45.992;12.666;2023-06-14T09:39:51;5.05;;;2.20;;
41661;SDS011;27351;45.992;12.666;2023-06-14T09:42:17;8.38;;;2.38;;
41661;SDS011;27351;45.992;12.666;2023-06-14T09:44:48;7.90;;;3.10;;
41661;SDS011;27351;45.992;12.666;2023-06-14T09:47:17;10.85;;;2.42;;
41661;SDS011;27351;45.992;12.666;2023-06-14T09:49:43;6.88;;;2.55;;
41661;SDS011;27351;45.992;12.666;2023-06-14T09:52:13;4.17;;;2.00;;
41661;SDS011;27351;45.992;12.666;2023-06-14T09:54:41;6.88;;;2.53;;
41661;SDS011;27351;45.992;12.666;2023-06-14T09:57:11;5.40;;;2.22;;
41661;SDS011;27351;45.992;12.666;2023-06-14T09:59:44;6.97;;;1.85;;
41661;SDS011;27351;45.992;12.666;2023-06-14T10:02:18;3.78;;;1.90;;
41661;SDS011;27351;45.992;12.666;2023-06-14T10:04:47;4.50;;;1.97;;
41661;SDS011;27351;45.992;12.666;2023-06-14T10:07:20;4.60;;;2.20;;
41661;SDS011;27351;45.992;12.666;2023-06-14T10:09:49;2.97;;;1.77;;
41661;SDS011;27351;45.992;12.666;2023-06-14T10:12:16;4.37;;;2.40;;
41661;SDS011;27351;45.992;12.666;2023-06-14T10:14:49;3.97;;;2.05;;
41661;SDS011;27351;45.992;12.666;2023-06-14T10:19:54;4.10;;;1.95;;
41661;SDS011;27351;45.992;12.666;2023-06-14T10:24:48;4.53;;;2.20;;
41661;SDS011;27351;45.992;12.666;2023-06-14T10:27:15;3.90;;;2.08;;
41661;SDS011;27351;45.992;12.666;2023-06-14T10:32:24;3.97;;;2.15;;
41661;SDS011;27351;45.992;12.666;2023-06-14T10:34:56;4.72;;;2.30;;
41661;SDS011;27351;45.992;12.666;2023-06-14T10:37:22;3.63;;;1.83;;
41661;SDS011;27351;45.992;12.666;2023-06-14T10:39:49;5.00;;;2.08;;
41661;SDS011;27351;45.992;12.666;2023-06-14T10:42:15;7.17;;;2.03;;
41661;SDS011;27351;45.992;12.666;2023-06-14T10:44:41;4.50;;;1.87;;
41661;SDS011;27351;45.992;12.666;2023-06-14T10:47:20;4.07;;;2.15;;
41661;SDS011;27351;45.992;12.666;2023-06-14T10:52:28;5.70;;;1.98;;
41661;SDS011;27351;45.992;12.666;2023-06-14T10:57:37;4.05;;;1.98;;
41661;SDS011;27351;45.992;12.666;2023-06-14T11:00:04;3.75;;;2.10;;
41661;SDS011;27351;45.992;12.666;2023-06-14T11:05:11;4.80;;;1.98;;
41661;SDS011;27351;45.992;12.666;2023-06-14T11:10:09;4.73;;;1.90;;
41661;SDS011;27351;45.992;12.666;2023-06-14T11:12:36;4.50;;;2.05;;
41661;SDS011;27351;45.992;12.666;2023-06-14T11:15:02;4.15;;;1.98;;
41661;SDS011;27351;45.992;12.666;2023-06-14T11:17:28;3.37;;;2.00;;
41661;SDS011;27351;45.992;12.666;2023-06-14T11:20:11;4.15;;;2.00;;
41661;SDS011;27351;45.992;12.666;2023-06-14T11:22:41;4.03;;;2.00;;
41661;SDS011;27351;45.992;12.666;2023-06-14T11:25:13;4.32;;;2.10;;
41661;SDS011;27351;45.992;12.666;2023-06-14T11:27:43;4.53;;;1.95;;
41661;SDS011;27351;45.992;12.666;2023-06-14T11:30:09;6.30;;;2.27;;
41661;SDS011;27351;45.992;12.666;2023-06-14T11:32:38;3.35;;;1.85;;
41661;SDS011;27351;45.992;12.666;2023-06-14T11:35:04;5.30;;;2.30;;
41661;SDS011;27351;45.992;12.666;2023-06-14T11:37:33;4.93;;;2.00;;
41661;SDS011;27351;45.992;12.666;2023-06-14T11:39:59;4.10;;;2.33;;
41661;SDS011;27351;45.992;12.666;2023-06-14T11:42:28;4.50;;;1.85;;
41661;SDS011;27351;45.992;12.666;2023-06-14T11:44:54;4.75;;;2.30;;
41661;SDS011;27351;45.992;12.666;2023-06-14T11:47:20;6.20;;;2.20;;
41661;SDS011;27351;45.992;12.666;2023-06-14T11:49:46;2.97;;;1.73;;
41661;SDS011;27351;45.992;12.666;2023-06-14T11:52:13;5.10;;;2.20;;
41661;SDS011;27351;45.992;12.666;2023-06-14T11:54:39;4.45;;;1.77;;
41661;SDS011;27351;45.992;12.666;2023-06-14T11:57:07;7.93;;;2.13;;
41661;SDS011;27351;45.992;12.666;2023-06-14T11:59:40;4.28;;;1.83;;
41661;SDS011;27351;45.992;12.666;2023-06-14T12:02:08;4.53;;;2.10;;
41661;SDS011;27351;45.992;12.666;2023-06-14T12:07:13;4.43;;;1.80;;
41661;SDS011;27351;45.992;12.666;2023-06-14T12:09:43;4.68;;;2.00;;
41661;SDS011;27351;45.992;12.666;2023-06-14T12:12:28;4.60;;;1.90;;
41661;SDS011;27351;45.992;12.666;2023-06-14T12:14:55;4.03;;;2.00;;
41661;SDS011;27351;45.992;12.666;2023-06-14T12:17:21;5.50;;;1.90;;
41661;SDS011;27351;45.992;12.666;2023-06-14T12:19:48;5.40;;;1.97;;
41661;SDS011;27351;45.992;12.666;2023-06-14T12:22:14;5.65;;;1.75;;
41661;SDS011;27351;45.992;12.666;2023-06-14T12:24:43;4.70;;;2.17;;
41661;SDS011;27351;45.992;12.666;2023-06-14T12:27:09;4.53;;;2.00;;
41661;SDS011;27351;45.992;12.666;2023-06-14T12:29:37;4.85;;;2.13;;
41661;SDS011;27351;45.992;12.666;2023-06-14T12:32:02;4.57;;;2.00;;
41661;SDS011;27351;45.992;12.666;2023-06-14T12:34:28;5.97;;;2.10;;
41661;SDS011;27351;45.992;12.666;2023-06-14T12:36:54;4.35;;;2.13;;
41661;SDS011;27351;45.992;12.666;2023-06-14T12:39:20;3.47;;;1.80;;
41661;SDS011;27351;45.992;12.666;2023-06-14T12:41:46;4.60;;;2.30;;
41661;SDS011;27351;45.992;12.666;2023-06-14T12:44:11;4.43;;;1.93;;
41661;SDS011;27351;45.992;12.666;2023-06-14T12:46:37;8.93;;;2.45;;
41661;SDS011;27351;45.992;12.666;2023-06-14T12:49:05;4.15;;;1.98;;
41661;SDS011;27351;45.992;12.666;2023-06-14T12:51:32;4.15;;;2.25;;
41661;SDS011;27351;45.992;12.666;2023-06-14T12:53:57;4.63;;;1.98;;
41661;SDS011;27351;45.992;12.666;2023-06-14T12:56:23;4.45;;;2.15;;
41661;SDS011;27351;45.992;12.666;2023-06-14T12:58:49;5.03;;;2.08;;
41661;SDS011;27351;45.992;12.666;2023-06-14T13:01:14;4.83;;;2.30;;
41661;SDS011;27351;45.992;12.666;2023-06-14T13:03:40;5.50;;;2.20;;
41661;SDS011;27351;45.992;12.666;2023-06-14T13:06:05;3.70;;;2.00;;
41661;SDS011;27351;45.992;12.666;2023-06-14T13:08:31;4.50;;;2.10;;
41661;SDS011;27351;45.992;12.666;2023-06-14T13:10:57;4.38;;;2.20;;
41661;SDS011;27351;45.992;12.666;2023-06-14T13:13:23;5.50;;;2.27;;
41661;SDS011;27351;45.992;12.666;2023-06-14T13:15:48;4.55;;;2.28;;
41661;SDS011;27351;45.992;12.666;2023-06-14T13:18:15;7.28;;;2.50;;
41661;SDS011;27351;45.992;12.666;2023-06-14T13:20:41;5.78;;;2.10;;
41661;SDS011;27351;45.992;12.666;2023-06-14T13:23:07;4.65;;;2.03;;
41661;SDS011;27351;45.992;12.666;2023-06-14T13:25:33;4.18;;;2.47;;
41661;SDS011;27351;45.992;12.666;2023-06-14T13:27:59;5.60;;;2.35;;
41661;SDS011;27351;45.992;12.666;2023-06-14T13:30:25;5.93;;;2.13;;
41661;SDS011;27351;45.992;12.666;2023-06-14T13:32:51;7.97;;;3.00;;
41661;SDS011;27351;45.992;12.666;2023-06-14T13:35:17;6.32;;;2.20;;
41661;SDS011;27351;45.992;12.666;2023-06-14T13:37:43;5.13;;;2.30;;
41661;SDS011;27351;45.992;12.666;2023-06-14T13:40:09;4.75;;;2.47;;
41661;SDS011;27351;45.992;12.666;2023-06-14T13:42:35;3.78;;;2.00;;
41661;SDS011;27351;45.992;12.666;2023-06-14T13:45:01;5.07;;;2.22;;
41661;SDS011;27351;45.992;12.666;2023-06-14T13:47:27;3.63;;;1.90;;
41661;SDS011;27351;45.992;12.666;2023-06-14T13:49:53;5.10;;;2.40;;
41661;SDS011;27351;45.992;12.666;2023-06-14T13:52:19;5.30;;;2.33;;
41661;SDS011;27351;45.992;12.666;2023-06-14T13:54:44;4.35;;;2.40;;
41661;SDS011;27351;45.992;12.666;2023-06-14T13:57:10;4.50;;;2.50;;
41661;SDS011;27351;45.992;12.666;2023-06-14T13:59:38;3.58;;;1.90;;
41661;SDS011;27351;45.992;12.666;2023-06-14T14:02:04;4.43;;;2.03;;
41661;SDS011;27351;45.992;12.666;2023-06-14T14:04:31;3.55;;;1.98;;
41661;SDS011;27351;45.992;12.666;2023-06-14T14:06:56;5.13;;;2.23;;
41661;SDS011;27351;45.992;12.666;2023-06-14T14:09:22;3.97;;;2.20;;
41661;SDS011;27351;45.992;12.666;2023-06-14T14:11:48;4.10;;;2.20;;
41661;SDS011;27351;45.992;12.666;2023-06-14T14:14:14;7.07;;;2.20;;
41661;SDS011;27351;45.992;12.666;2023-06-14T14:16:39;4.23;;;2.03;;
41661;SDS011;27351;45.992;12.666;2023-06-14T14:19:05;8.10;;;2.50;;
41661;SDS011;27351;45.992;12.666;2023-06-14T14:21:31;3.80;;;2.13;;
41661;SDS011;27351;45.992;12.666;2023-06-14T14:23:58;6.82;;;2.20;;
41661;SDS011;27351;45.992;12.666;2023-06-14T14:26:23;6.80;;;2.13;;
41661;SDS011;27351;45.992;12.666;2023-06-14T14:28:50;5.10;;;1.98;;
41661;SDS011;27351;45.992;12.666;2023-06-14T14:31:16;3.72;;;2.10;;
41661;SDS011;27351;45.992;12.666;2023-06-14T14:33:42;4.65;;;2.40;;
41661;SDS011;27351;45.992;12.666;2023-06-14T14:36:07;5.70;;;2.70;;
41661;SDS011;27351;45.992;12.666;2023-06-14T14:38:33;5.68;;;2.40;;
41661;SDS011;27351;45.992;12.666;2023-06-14T14:40:59;4.57;;;2.23;;
41661;SDS011;27351;45.992;12.666;2023-06-14T14:43:24;5.00;;;2.50;;
41661;SDS011;27351;45.992;12.666;2023-06-14T14:45:51;5.47;;;2.77;;
41661;SDS011;27351;45.992;12.666;2023-06-14T14:48:16;4.03;;;2.10;;
41661;SDS011;27351;45.992;12.666;2023-06-14T14:50:42;5.50;;;2.22;;
41661;SDS011;27351;45.992;12.666;2023-06-14T14:53:08;5.60;;;2.73;;
41661;SDS011;27351;45.992;12.666;2023-06-14T14:55:33;5.28;;;2.40;;
41661;SDS011;27351;45.992;12.666;2023-06-14T14:58:01;4.38;;;2.10;;